Time;durP1;ratioP1;P1;durP2;ratioP2;P2;SDS_P1;SDS_P2;PMS_P1;PMS_P2;Temp;Humidity;BMP_temperature;BMP_pressure;BME280_temperature;BME280_humidity;BME280_pressure;Samples;Min_cycle;Max_cycle;Signal;HPM_P1;HPM_P2
2021/05/01 00:01:10;;;;;;;10.87;9.30;;;9.20;99.90;;;;;;5031534;28;20528;-77
2021/05/01 00:03:36;;;;;;;11.77;8.47;;;9.20;99.90;;;;;;5031798;28;20765;-76
2021/05/01 00:06:02;;;;;;;12.57;8.30;;;9.20;99.90;;;;;;5031606;28;20510;-76
2021/05/01 00:08:29;;;;;;;11.77;9.47;;;9.10;99.90;;;;;;5031398;28;20578;-77
2021/05/01 00:10:56;;;;;;;8.83;7.27;;;9.10;99.90;;;;;;5031491;28;20461;-77
2021/05/01 00:13:22;;;;;;;11.70;9.17;;;9.10;99.90;;;;;;5031517;28;20450;-76
2021/05/01 00:15:48;;;;;;;13.43;9.37;;;9.10;99.90;;;;;;5031703;28;20506;-76
2021/05/01 00:18:15;;;;;;;12.00;9.10;;;9.00;99.90;;;;;;5031408;28;21006;-76
2021/05/01 00:20:41;;;;;;;11.10;9.60;;;9.00;99.90;;;;;;5026945;28;20462;-76
2021/05/01 00:23:07;;;;;;;10.33;8.80;;;9.00;99.90;;;;;;5028511;27;20442;-76
2021/05/01 00:25:34;;;;;;;9.00;7.77;;;9.00;99.90;;;;;;5020135;27;20458;-76
2021/05/01 00:28:00;;;;;;;10.83;8.90;;;9.00;99.90;;;;;;5033740;27;20505;-76
2021/05/01 00:30:26;;;;;;;10.57;9.47;;;9.00;99.90;;;;;;5034240;27;20473;-76
2021/05/01 00:32:52;;;;;;;12.73;9.00;;;8.90;99.90;;;;;;5026701;27;20512;-76
2021/05/01 00:35:20;;;;;;;9.13;8.23;;;8.90;99.90;;;;;;5026729;27;20486;-76
2021/05/01 00:37:46;;;;;;;10.50;9.20;;;8.90;99.90;;;;;;5019768;27;20978;-76
2021/05/01 00:40:13;;;;;;;10.77;9.20;;;9.00;99.90;;;;;;5015374;27;20485;-76
2021/05/01 00:42:39;;;;;;;13.43;10.40;;;9.00;99.90;;;;;;5035892;27;20445;-76
2021/05/01 00:45:06;;;;;;;9.33;8.43;;;8.90;99.90;;;;;;5023746;27;20488;-76
2021/05/01 00:47:32;;;;;;;9.83;8.83;;;8.90;99.90;;;;;;5016564;27;20487;-76
2021/05/01 00:49:58;;;;;;;11.40;8.90;;;8.90;99.90;;;;;;5019546;27;20481;-76
2021/05/01 00:52:26;;;;;;;12.43;8.83;;;8.80;99.90;;;;;;5018112;27;20202;-76
2021/05/01 00:54:52;;;;;;;10.70;9.33;;;8.80;99.90;;;;;;5031300;27;20505;-76
2021/05/01 00:57:18;;;;;;;10.20;9.20;;;8.80;99.90;;;;;;5018692;27;20987;-76
2021/05/01 00:59:44;;;;;;;13.00;9.20;;;8.80;99.90;;;;;;5018009;27;20793;-76
2021/05/01 01:02:12;;;;;;;9.87;8.90;;;8.80;99.90;;;;;;5033597;27;20519;-76
2021/05/01 01:04:39;;;;;;;13.27;9.52;;;8.80;99.90;;;;;;5034974;27;20429;-76
2021/05/01 01:07:05;;;;;;;10.32;9.13;;;8.70;99.90;;;;;;5017947;28;20191;-77
2021/05/01 01:09:32;;;;;;;13.37;9.40;;;8.70;99.90;;;;;;5022239;28;20213;-76
2021/05/01 01:11:59;;;;;;;12.00;9.80;;;8.70;99.90;;;;;;5012745;28;20486;-76
2021/05/01 01:14:25;;;;;;;10.73;8.97;;;8.70;99.90;;;;;;5037846;27;20556;-76
2021/05/01 01:16:51;;;;;;;10.40;9.17;;;8.70;99.90;;;;;;5020320;27;20453;-76
2021/05/01 01:19:17;;;;;;;13.77;10.30;;;8.70;99.90;;;;;;5028410;27;20485;-76
2021/05/01 01:21:44;;;;;;;10.88;9.73;;;8.70;99.90;;;;;;5030833;27;20562;-76
2021/05/01 01:24:12;;;;;;;11.60;8.90;;;8.70;99.90;;;;;;5030354;27;20218;-76
2021/05/01 01:26:39;;;;;;;11.30;8.95;;;8.60;99.90;;;;;;5038485;27;20211;-76
2021/05/01 01:29:06;;;;;;;11.38;9.35;;;8.50;99.90;;;;;;5027798;27;20206;-76
2021/05/01 01:31:33;;;;;;;10.63;9.50;;;8.40;99.90;;;;;;5015672;28;20661;-76
2021/05/01 01:33:59;;;;;;;10.85;8.95;;;8.30;99.90;;;;;;5019359;28;20191;-76
2021/05/01 01:36:26;;;;;;;13.40;10.70;;;8.20;99.90;;;;;;5022623;27;20223;-77
2021/05/01 01:38:52;;;;;;;12.43;10.10;;;8.20;99.90;;;;;;5022792;28;20416;-76
2021/05/01 01:41:19;;;;;;;17.67;11.17;;;8.20;99.90;;;;;;5019742;28;20213;-76
2021/05/01 01:43:45;;;;;;;10.57;9.47;;;8.10;99.90;;;;;;5014767;28;20949;-76
2021/05/01 01:46:11;;;;;;;10.43;9.43;;;8.10;99.90;;;;;;5018232;28;20468;-77
2021/05/01 01:48:37;;;;;;;11.63;10.43;;;8.10;99.90;;;;;;5030139;27;20665;-77
2021/05/01 01:51:04;;;;;;;11.32;9.65;;;8.10;99.90;;;;;;5018336;27;20541;-76
2021/05/01 01:53:30;;;;;;;9.93;8.70;;;8.10;99.90;;;;;;5016110;28;20232;-76
2021/05/01 01:55:56;;;;;;;10.55;9.32;;;8.20;99.90;;;;;;5018935;27;20498;-76
2021/05/01 01:58:23;;;;;;;9.75;8.75;;;8.20;99.90;;;;;;5036721;27;20179;-76
2021/05/01 02:00:50;;;;;;;10.40;9.15;;;8.20;99.90;;;;;;5020577;27;20271;-76
2021/05/01 02:03:17;;;;;;;10.67;9.67;;;8.30;99.90;;;;;;5032455;27;20212;-76
2021/05/01 02:05:44;;;;;;;12.57;9.50;;;8.40;99.90;;;;;;5015553;28;20545;-76
2021/05/01 02:08:10;;;;;;;11.65;8.70;;;8.40;99.90;;;;;;5021007;28;20517;-76
2021/05/01 02:10:37;;;;;;;10.23;9.23;;;8.40;99.90;;;;;;5012530;28;20194;-76
2021/05/01 02:13:04;;;;;;;15.30;9.77;;;8.50;99.90;;;;;;5019537;28;20454;-75
2021/05/01 02:15:31;;;;;;;10.10;9.00;;;8.50;99.90;;;;;;5020102;28;20457;-76
2021/05/01 02:17:58;;;;;;;11.75;10.57;;;8.50;99.90;;;;;;5019899;28;20531;-76
2021/05/01 02:20:27;;;;;;;10.50;9.02;;;8.50;99.90;;;;;;5020955;28;20183;-76
2021/05/01 02:22:53;;;;;;;11.00;9.80;;;8.50;99.90;;;;;;5033111;28;20191;-75
2021/05/01 02:25:20;;;;;;;13.03;9.93;;;8.50;99.90;;;;;;5026722;28;20516;-75
2021/05/01 02:27:47;;;;;;;12.13;9.40;;;8.60;99.90;;;;;;5026984;28;20501;-76
2021/05/01 02:30:16;;;;;;;13.93;9.05;;;8.60;99.90;;;;;;5029573;28;20453;-76
2021/05/01 02:32:43;;;;;;;12.50;10.40;;;8.70;99.90;;;;;;5029772;28;20190;-76
2021/05/01 02:35:12;;;;;;;11.63;9.73;;;8.60;99.90;;;;;;5029716;28;20449;-76
2021/05/01 02:37:39;;;;;;;12.57;11.10;;;8.70;99.90;;;;;;5029470;28;20445;-76
2021/05/01 02:40:07;;;;;;;10.17;9.17;;;8.70;99.90;;;;;;5029529;28;20190;-76
2021/05/01 02:42:33;;;;;;;10.70;9.50;;;8.70;99.90;;;;;;5029350;28;20541;-76
2021/05/01 02:44:59;;;;;;;11.60;9.47;;;8.70;99.90;;;;;;5030030;28;20492;-77
2021/05/01 02:47:26;;;;;;;15.30;9.33;;;8.70;99.90;;;;;;5031853;27;20499;-76
2021/05/01 02:49:53;;;;;;;16.83;10.87;;;8.70;99.90;;;;;;5018311;28;20561;-76
2021/05/01 02:52:19;;;;;;;11.77;10.57;;;8.70;99.90;;;;;;5032384;27;20480;-75
2021/05/01 02:54:45;;;;;;;13.63;9.27;;;8.70;99.90;;;;;;5022190;27;20454;-76
2021/05/01 02:57:11;;;;;;;11.30;9.70;;;8.70;99.90;;;;;;5027573;27;20542;-76
2021/05/01 02:59:37;;;;;;;11.93;10.73;;;8.60;99.90;;;;;;5038258;27;20478;-76
2021/05/01 03:02:03;;;;;;;12.87;10.00;;;8.60;99.90;;;;;;5034347;27;20482;-75
2021/05/01 03:04:29;;;;;;;14.43;11.48;;;8.50;99.90;;;;;;5018227;28;20426;-76
2021/05/01 03:06:56;;;;;;;11.65;10.45;;;8.50;99.90;;;;;;5024479;27;20262;-75
2021/05/01 03:09:22;;;;;;;12.40;11.20;;;8.60;99.90;;;;;;5024068;27;20646;-75
2021/05/01 03:11:49;;;;;;;12.60;11.30;;;8.60;99.90;;;;;;5038595;27;20476;-76
2021/05/01 03:14:15;;;;;;;13.93;10.87;;;8.60;99.90;;;;;;5021971;27;20457;-76
2021/05/01 03:16:41;;;;;;;15.53;12.47;;;8.60;99.90;;;;;;5033457;27;20525;-76
2021/05/01 03:19:07;;;;;;;14.90;11.87;;;8.60;99.90;;;;;;5021246;28;20489;-76
2021/05/01 03:21:33;;;;;;;12.80;11.37;;;8.70;99.90;;;;;;5034665;27;20545;-76
2021/05/01 03:24:00;;;;;;;13.27;11.73;;;8.70;99.90;;;;;;5034901;27;20492;-76
2021/05/01 03:26:26;;;;;;;14.87;11.27;;;8.70;99.90;;;;;;5023331;27;20454;-75
2021/05/01 03:28:52;;;;;;;12.37;10.90;;;8.70;99.90;;;;;;5018128;27;20473;-77
2021/05/01 03:31:18;;;;;;;13.20;10.47;;;8.60;99.90;;;;;;5031945;27;20460;-76
2021/05/01 03:33:44;;;;;;;12.47;10.77;;;8.60;99.90;;;;;;5037075;27;20448;-76
2021/05/01 03:36:10;;;;;;;15.13;11.13;;;8.60;99.90;;;;;;5022456;28;20469;-73
2021/05/01 03:38:36;;;;;;;12.35;10.70;;;8.60;99.90;;;;;;5021094;27;20522;-73
2021/05/01 03:41:03;;;;;;;14.60;10.60;;;8.60;99.90;;;;;;5030276;27;20188;-74
2021/05/01 03:43:30;;;;;;;11.90;9.65;;;8.60;99.90;;;;;;5028663;27;20207;-73
2021/05/01 03:45:56;;;;;;;11.70;9.63;;;8.60;99.90;;;;;;5021035;28;20183;-73
2021/05/01 03:48:22;;;;;;;14.90;10.70;;;8.60;99.90;;;;;;5034088;27;20990;-73
2021/05/01 03:50:49;;;;;;;11.87;10.67;;;8.70;99.90;;;;;;5022244;27;21026;-73
2021/05/01 03:53:15;;;;;;;14.43;10.63;;;8.70;99.90;;;;;;5033872;27;20446;-73
2021/05/01 03:55:41;;;;;;;11.87;10.13;;;8.70;99.90;;;;;;5023143;27;20658;-74
2021/05/01 03:58:08;;;;;;;13.17;11.23;;;8.80;99.90;;;;;;5021636;27;20489;-75
2021/05/01 04:00:34;;;;;;;13.33;11.03;;;8.80;99.90;;;;;;5031947;27;20457;-74
2021/05/01 04:03:00;;;;;;;11.23;10.23;;;8.80;99.90;;;;;;5031653;27;20568;-74
2021/05/01 04:05:26;;;;;;;13.88;10.55;;;8.80;99.90;;;;;;5014345;27;20184;-74
2021/05/01 04:07:52;;;;;;;10.80;9.70;;;8.90;99.90;;;;;;5031871;27;20215;-74
2021/05/01 04:10:19;;;;;;;12.20;10.47;;;8.90;99.90;;;;;;5014805;28;20282;-75
2021/05/01 04:12:45;;;;;;;12.57;10.57;;;8.90;99.90;;;;;;5023423;27;20454;-74
2021/05/01 04:15:13;;;;;;;11.47;10.27;;;8.90;99.90;;;;;;5013998;27;21236;-74
2021/05/01 04:17:39;;;;;;;11.30;10.03;;;8.90;99.90;;;;;;5020226;28;20458;-74
2021/05/01 04:20:07;;;;;;;11.97;10.70;;;8.90;99.90;;;;;;5021867;27;20453;-74
2021/05/01 04:22:33;;;;;;;14.67;11.00;;;8.90;99.90;;;;;;5030766;27;20538;-75
2021/05/01 04:24:59;;;;;;;11.37;10.27;;;9.00;99.90;;;;;;5019343;28;20534;-74
2021/05/01 04:27:25;;;;;;;11.43;10.10;;;9.00;99.90;;;;;;5024717;28;20452;-75
2021/05/01 04:29:51;;;;;;;13.60;11.07;;;9.10;99.90;;;;;;5037869;27;20500;-74
2021/05/01 04:32:18;;;;;;;14.40;10.50;;;9.20;99.90;;;;;;5021516;27;20542;-74
2021/05/01 04:34:44;;;;;;;12.00;9.82;;;9.30;99.90;;;;;;5023960;27;20554;-74
2021/05/01 04:37:10;;;;;;;12.60;10.73;;;9.30;99.90;;;;;;5016138;28;20201;-74
2021/05/01 04:39:36;;;;;;;11.90;10.20;;;9.30;99.90;;;;;;5029609;27;20781;-74
2021/05/01 04:42:03;;;;;;;11.73;10.00;;;9.30;99.90;;;;;;5013962;28;20473;-74
2021/05/01 04:44:30;;;;;;;11.00;9.60;;;9.40;99.90;;;;;;5014101;28;20523;-74
2021/05/01 04:46:57;;;;;;;13.67;11.00;;;9.40;99.90;;;;;;5017300;27;20454;-73
2021/05/01 04:49:23;;;;;;;10.07;9.07;;;9.50;99.90;;;;;;5026389;27;20465;-74
2021/05/01 04:51:50;;;;;;;13.03;10.20;;;9.50;99.90;;;;;;5026967;28;20446;-74
2021/05/01 04:54:16;;;;;;;12.90;11.07;;;9.60;99.90;;;;;;5030105;28;20457;-74
2021/05/01 04:56:44;;;;;;;11.23;10.10;;;9.60;99.90;;;;;;5031144;28;20477;-74
2021/05/01 04:59:10;;;;;;;11.60;10.43;;;9.60;99.90;;;;;;5030755;28;20454;-75
2021/05/01 05:01:37;;;;;;;12.77;9.97;;;9.70;99.90;;;;;;5030827;28;20485;-74
2021/05/01 05:04:03;;;;;;;15.30;10.20;;;9.60;99.90;;;;;;5026080;28;20461;-74
2021/05/01 05:06:30;;;;;;;11.80;9.97;;;9.60;99.90;;;;;;5030891;28;20853;-74
2021/05/01 05:08:59;;;;;;;14.57;10.50;;;9.70;99.90;;;;;;5029920;28;20480;-75
2021/05/01 05:11:25;;;;;;;12.27;9.23;;;9.70;99.90;;;;;;5031073;28;20458;-75
2021/05/01 05:13:51;;;;;;;11.33;10.17;;;9.70;99.90;;;;;;5022307;28;20461;-75
2021/05/01 05:16:18;;;;;;;14.90;9.63;;;9.80;99.90;;;;;;5033416;27;20544;-75
2021/05/01 05:18:44;;;;;;;10.67;9.43;;;9.70;99.90;;;;;;5029829;27;20537;-75
2021/05/01 05:21:10;;;;;;;13.80;11.00;;;9.70;99.90;;;;;;5019760;28;20547;-75
2021/05/01 05:23:37;;;;;;;13.17;10.10;;;9.80;99.90;;;;;;5012773;28;20503;-75
2021/05/01 05:26:03;;;;;;;11.33;10.10;;;9.80;99.90;;;;;;5028241;27;20449;-74
2021/05/01 05:28:29;;;;;;;12.70;10.10;;;9.80;99.90;;;;;;5012044;28;20909;-74
2021/05/01 05:30:56;;;;;;;11.77;9.50;;;9.80;99.90;;;;;;5048959;27;20454;-74
2021/05/01 05:33:22;;;;;;;16.07;13.67;;;9.80;99.90;;;;;;5021427;28;20473;-75
2021/05/01 05:35:48;;;;;;;22.53;16.10;;;9.90;99.90;;;;;;5023913;27;20491;-74
2021/05/01 05:38:14;;;;;;;12.73;11.30;;;9.90;99.90;;;;;;5023802;27;20533;-74
2021/05/01 05:40:41;;;;;;;11.70;10.50;;;9.90;99.90;;;;;;5020777;28;20505;-74
2021/05/01 05:43:08;;;;;;;12.70;9.80;;;9.80;99.90;;;;;;5020789;27;20881;-74
2021/05/01 05:45:34;;;;;;;15.80;11.00;;;9.90;99.90;;;;;;5012171;28;20846;-74
2021/05/01 05:48:00;;;;;;;13.60;11.20;;;9.90;99.90;;;;;;5026718;27;20523;-74
2021/05/01 05:50:27;;;;;;;11.00;9.90;;;9.90;99.90;;;;;;5018879;28;20545;-75
2021/05/01 05:52:53;;;;;;;11.90;10.53;;;9.90;99.90;;;;;;5027619;27;20478;-75
2021/05/01 05:55:19;;;;;;;14.30;11.30;;;9.90;99.90;;;;;;5031127;27;20424;-74
2021/05/01 05:57:49;;;;;;;14.40;11.00;;;9.90;99.90;;;;;;5016850;28;20447;-75
2021/05/01 06:00:17;;;;;;;15.13;10.23;;;9.90;99.90;;;;;;5015983;28;20462;-74
2021/05/01 06:02:44;;;;;;;16.93;12.47;;;10.00;99.90;;;;;;5015155;28;20509;-74
2021/05/01 06:05:13;;;;;;;15.43;12.40;;;10.00;99.90;;;;;;5023095;28;20453;-74
2021/05/01 06:07:46;;;;;;;17.90;12.17;;;10.00;99.90;;;;;;5018018;28;20451;-74
2021/05/01 06:10:12;;;;;;;15.50;12.40;;;10.00;99.90;;;;;;5027867;28;20483;-74
2021/05/01 06:12:39;;;;;;;14.97;11.97;;;10.10;99.90;;;;;;5030963;28;20591;-74
2021/05/01 06:15:09;;;;;;;16.53;11.87;;;10.20;99.90;;;;;;5012438;28;20481;-74
2021/05/01 06:17:36;;;;;;;12.90;11.00;;;10.20;99.90;;;;;;5015133;28;20449;-74
2021/05/01 06:20:04;;;;;;;16.90;10.80;;;10.20;99.90;;;;;;5028801;27;20469;-74
2021/05/01 06:22:30;;;;;;;15.50;12.60;;;10.20;99.90;;;;;;5025254;27;20507;-80
2021/05/01 06:24:57;;;;;;;22.40;17.57;;;10.30;99.90;;;;;;5055833;27;20536;-74
2021/05/01 06:27:23;;;;;;;19.03;13.30;;;10.40;99.90;;;;;;5034226;27;20453;-75
2021/05/01 06:29:50;;;;;;;16.13;12.10;;;10.40;99.90;;;;;;5042953;27;20523;-75
2021/05/01 06:32:18;;;;;;;14.90;12.13;;;10.40;99.90;;;;;;5033656;27;20452;-74
2021/05/01 06:34:47;;;;;;;14.47;10.50;;;10.40;99.90;;;;;;5100430;27;21015;-74
2021/05/01 06:37:16;;;;;;;13.10;10.43;;;10.50;99.90;;;;;;5137681;27;20444;-75
2021/05/01 06:39:43;;;;;;;16.87;12.53;;;10.50;99.90;;;;;;5031634;28;20974;-74
2021/05/01 06:42:12;;;;;;;12.40;11.10;;;10.60;99.90;;;;;;5032001;28;20805;-76
2021/05/01 06:44:41;;;;;;;15.27;9.67;;;10.70;99.90;;;;;;5032429;28;20530;-75
2021/05/01 06:47:10;;;;;;;15.80;10.67;;;10.80;99.90;;;;;;5062081;27;20457;-78
2021/05/01 06:49:48;;;;;;;13.87;11.07;;;10.90;99.90;;;;;;5037892;27;20527;-78
2021/05/01 06:52:16;;;;;;;15.93;11.50;;;11.00;99.90;;;;;;5038385;27;20445;-79
2021/05/01 06:54:44;;;;;;;11.00;9.50;;;11.10;99.90;;;;;;5039281;27;20453;-75
2021/05/01 06:57:11;;;;;;;14.53;11.33;;;11.20;99.90;;;;;;5039374;27;20453;-76
2021/05/01 06:59:39;;;;;;;15.20;11.27;;;11.30;99.90;;;;;;5031889;28;20449;-75
2021/05/01 07:02:05;;;;;;;12.70;11.13;;;11.40;99.90;;;;;;5031928;28;20469;-75
2021/05/01 07:04:32;;;;;;;15.33;11.03;;;11.40;99.90;;;;;;5032238;27;20472;-76
2021/05/01 07:06:59;;;;;;;13.80;12.07;;;11.50;99.90;;;;;;5040136;27;20476;-75
2021/05/01 07:09:26;;;;;;;16.80;13.57;;;11.60;99.90;;;;;;5057489;27;20576;-75
2021/05/01 07:11:53;;;;;;;16.77;13.10;;;11.50;99.90;;;;;;5036624;27;20457;-75
2021/05/01 07:14:22;;;;;;;19.37;13.40;;;11.50;99.90;;;;;;5037102;27;20456;-76
2021/05/01 07:16:49;;;;;;;25.83;15.37;;;11.50;99.90;;;;;;5037428;27;20450;-77
2021/05/01 07:19:15;;;;;;;16.30;12.87;;;11.50;99.90;;;;;;5037464;27;20441;-77
2021/05/01 07:21:41;;;;;;;16.10;12.60;;;11.50;99.90;;;;;;5031401;28;20480;-77
2021/05/01 07:24:10;;;;;;;16.23;12.57;;;11.60;99.90;;;;;;5031724;28;20609;-77
2021/05/01 07:26:36;;;;;;;14.90;11.70;;;11.60;99.90;;;;;;5031439;28;20492;-75
2021/05/01 07:29:06;;;;;;;14.37;12.27;;;11.60;99.90;;;;;;5031346;28;20808;-76
2021/05/01 07:31:33;;;;;;;16.43;11.20;;;11.70;99.90;;;;;;5030747;28;20542;-75
2021/05/01 07:34:00;;;;;;;13.70;10.77;;;11.70;99.90;;;;;;5031369;28;20473;-74
2021/05/01 07:36:30;;;;;;;13.13;10.63;;;11.80;99.90;;;;;;5031295;28;20454;-74
2021/05/01 07:38:58;;;;;;;17.10;12.13;;;11.90;99.90;;;;;;5031799;28;20914;-75
2021/05/01 07:41:25;;;;;;;19.93;11.60;;;12.00;99.90;;;;;;5030864;28;20445;-74
2021/05/01 07:43:53;;;;;;;14.33;11.57;;;12.10;99.90;;;;;;5036230;27;20437;-74
2021/05/01 07:49:21;;;;;;;13.30;11.10;;;12.30;99.90;;;;;;5085898;27;20525;-76
2021/05/01 07:51:47;;;;;;;13.17;11.80;;;12.40;99.90;;;;;;5049159;27;20449;-75
2021/05/01 07:54:14;;;;;;;15.30;10.23;;;12.50;99.90;;;;;;5116676;27;20468;-75
2021/05/01 07:56:41;;;;;;;14.53;10.87;;;12.60;99.90;;;;;;5069721;27;20576;-75
2021/05/01 07:59:08;;;;;;;16.60;11.93;;;12.70;99.90;;;;;;5077664;27;20449;-76
2021/05/01 08:01:34;;;;;;;11.37;9.87;;;12.80;99.90;;;;;;5108332;27;20492;-77
2021/05/01 08:04:01;;;;;;;16.57;12.17;;;12.80;99.90;;;;;;5047996;27;20452;-79
2021/05/01 08:06:28;;;;;;;13.23;11.70;;;12.90;99.90;;;;;;5106467;27;20984;-80
2021/05/01 08:08:54;;;;;;;15.90;11.00;;;13.00;99.90;;;;;;5079382;27;20517;-78
2021/05/01 08:11:20;;;;;;;18.93;12.20;;;13.00;99.90;;;;;;5068251;27;20446;-75
2021/05/01 08:13:47;;;;;;;12.87;11.57;;;13.00;99.90;;;;;;5117068;27;20445;-75
2021/05/01 08:16:14;;;;;;;13.53;11.33;;;13.10;99.90;;;;;;5034367;27;20878;-75
2021/05/01 08:18:40;;;;;;;14.10;11.30;;;13.10;99.90;;;;;;5096936;27;20733;-75
2021/05/01 08:21:06;;;;;;;15.80;12.30;;;13.20;99.90;;;;;;5088103;27;20536;-75
2021/05/01 08:23:33;;;;;;;16.30;12.13;;;13.40;99.90;;;;;;5066208;27;21314;-75
2021/05/01 08:26:00;;;;;;;12.20;10.83;;;13.60;99.90;;;;;;5082178;27;20456;-75
2021/05/01 08:28:26;;;;;;;13.73;11.17;;;13.80;99.90;;;;;;5048746;27;20441;-75
2021/05/01 08:30:53;;;;;;;12.47;10.43;;;14.10;99.90;;;;;;5045077;27;20474;-76
2021/05/01 08:33:19;;;;;;;16.30;11.30;;;14.40;99.90;;;;;;5045337;27;20808;-75
2021/05/01 08:35:45;;;;;;;13.70;10.93;;;14.70;99.90;;;;;;5044743;27;20860;-75
2021/05/01 08:38:11;;;;;;;12.10;10.90;;;15.20;99.90;;;;;;5059198;27;20469;-75
2021/05/01 08:40:37;;;;;;;13.03;10.80;;;15.50;99.90;;;;;;5044222;27;21013;-75
2021/05/01 08:43:04;;;;;;;11.63;10.43;;;15.80;99.90;;;;;;5035021;28;20445;-75
2021/05/01 08:45:32;;;;;;;14.23;12.43;;;15.90;99.90;;;;;;5044753;27;20522;-75
2021/05/01 08:48:00;;;;;;;14.10;10.60;;;16.00;99.90;;;;;;5050013;27;20536;-76
2021/05/01 08:50:47;;;;;;;12.03;10.83;;;16.00;99.90;;;;;;5048460;27;20485;-76
2021/05/01 08:53:13;;;;;;;11.20;9.90;;;15.90;99.90;;;;;;5044496;27;20812;-76
2021/05/01 08:55:39;;;;;;;11.37;10.27;;;15.70;99.90;;;;;;5044606;27;20481;-76
2021/05/01 08:58:07;;;;;;;12.10;10.80;;;15.60;99.90;;;;;;5057892;27;20499;-76
2021/05/01 09:00:35;;;;;;;12.03;10.90;;;15.60;99.90;;;;;;5040153;27;20477;-76
2021/05/01 09:03:06;;;;;;;11.53;10.27;;;15.60;99.90;;;;;;5044372;27;20888;-76
2021/05/01 09:05:33;;;;;;;13.03;10.53;;;15.70;99.90;;;;;;5044487;27;20806;-76
2021/05/01 09:07:59;;;;;;;12.70;10.90;;;15.90;99.90;;;;;;5053534;27;20820;-76
2021/05/01 09:10:27;;;;;;;10.83;9.73;;;15.90;99.90;;;;;;5048737;27;20551;-77
2021/05/01 09:12:54;;;;;;;12.87;11.10;;;15.90;99.90;;;;;;5044777;27;20536;-76
2021/05/01 09:15:21;;;;;;;10.40;9.40;;;16.10;99.90;;;;;;5044431;27;20457;-76
2021/05/01 09:17:57;;;;;;;10.70;9.60;;;16.10;99.90;;;;;;5044634;27;20446;-76
2021/05/01 09:20:24;;;;;;;11.57;10.00;;;16.20;99.90;;;;;;5050411;27;20490;-76
2021/05/01 09:22:58;;;;;;;9.90;8.90;;;16.40;99.90;;;;;;5044323;27;20441;-76
2021/05/01 09:25:27;;;;;;;9.37;8.37;;;16.40;99.90;;;;;;5043946;27;20532;-76
2021/05/01 09:28:01;;;;;;;8.40;7.70;;;16.50;99.90;;;;;;5048871;27;20499;-76
2021/05/01 09:30:29;;;;;;;10.47;9.37;;;16.80;99.90;;;;;;5047212;27;21392;-76
2021/05/01 09:33:24;;;;;;;9.07;7.70;;;16.90;99.90;;;;;;5044036;27;20450;-76
2021/05/01 09:35:56;;;;;;;9.63;8.63;;;17.10;99.90;;;;;;5046566;27;20813;-76
2021/05/01 09:38:22;;;;;;;10.00;9.00;;;17.10;99.90;;;;;;5050368;27;20441;-76
2021/05/01 09:40:54;;;;;;;8.87;8.10;;;17.00;99.90;;;;;;5043995;27;20481;-76
2021/05/01 09:43:21;;;;;;;8.87;8.03;;;16.90;99.90;;;;;;5044097;27;20445;-77
2021/05/01 09:45:47;;;;;;;10.30;9.40;;;17.00;99.90;;;;;;5044256;27;20536;-76
2021/05/01 09:48:15;;;;;;;12.93;10.40;;;17.10;99.90;;;;;;5057070;27;20475;-76
2021/05/01 09:50:43;;;;;;;10.83;9.73;;;17.20;99.90;;;;;;5043952;27;20446;-76
2021/05/01 09:53:13;;;;;;;10.43;8.70;;;17.20;99.90;;;;;;5092737;27;20448;-75
2021/05/01 09:55:51;;;;;;;10.20;9.27;;;16.90;99.90;;;;;;5131674;27;20440;-75
2021/05/01 09:58:23;;;;;;;10.80;9.70;;;16.70;99.90;;;;;;5130524;27;20982;-75
2021/05/01 10:00:50;;;;;;;9.77;8.80;;;16.50;99.90;;;;;;5131831;27;20505;-76
2021/05/01 10:03:22;;;;;;;10.20;9.17;;;16.20;99.90;;;;;;5131617;27;20468;-75
2021/05/01 10:05:49;;;;;;;13.00;10.10;;;16.10;99.90;;;;;;5098799;27;20481;-75
2021/05/01 10:08:19;;;;;;;11.50;10.40;;;16.00;99.90;;;;;;5031840;28;20502;-76
2021/05/01 10:10:46;;;;;;;9.83;8.87;;;16.00;99.90;;;;;;5030853;28;20526;-75
2021/05/01 10:13:14;;;;;;;10.87;9.77;;;16.10;99.90;;;;;;5030512;28;20445;-75
2021/05/01 10:15:42;;;;;;;8.77;7.90;;;16.40;99.90;;;;;;5030023;28;20555;-75
2021/05/01 10:18:09;;;;;;;9.40;8.50;;;16.70;99.90;;;;;;5095143;28;20472;-75
2021/05/01 10:20:46;;;;;;;11.13;9.87;;;17.10;99.90;;;;;;5030537;28;20948;-76
2021/05/01 10:23:14;;;;;;;8.80;8.00;;;17.40;99.90;;;;;;5030418;28;20453;-76
2021/05/01 10:25:42;;;;;;;9.97;8.97;;;17.70;99.90;;;;;;5030243;28;20666;-76
2021/05/01 10:28:12;;;;;;;10.10;8.97;;;18.00;99.90;;;;;;5031508;28;20975;-76
2021/05/01 10:30:41;;;;;;;10.13;9.17;;;18.10;99.90;;;;;;5030589;28;20529;-76
2021/05/01 10:33:13;;;;;;;8.40;7.60;;;18.30;99.90;;;;;;5030275;28;20816;-76
2021/05/01 10:35:40;;;;;;;9.43;8.27;;;18.40;99.90;;;;;;5029789;28;20457;-77
2021/05/01 10:38:09;;;;;;;9.90;8.50;;;18.30;99.90;;;;;;5031786;28;20445;-76
2021/05/01 10:40:45;;;;;;;9.27;8.37;;;18.10;99.90;;;;;;5014972;28;20521;-76
2021/05/01 10:43:15;;;;;;;8.53;7.73;;;17.90;99.90;;;;;;5029088;28;20471;-76
2021/05/01 10:45:47;;;;;;;10.30;8.30;;;17.90;99.90;;;;;;5029037;28;20501;-76
2021/05/01 10:48:14;;;;;;;8.37;7.60;;;18.00;99.90;;;;;;5031545;28;20982;-76
2021/05/01 10:50:40;;;;;;;9.33;8.33;;;18.20;99.90;;;;;;5030120;28;20479;-77
2021/05/01 10:53:07;;;;;;;8.67;7.83;;;18.50;99.90;;;;;;5069832;28;20947;-76
2021/05/01 10:55:46;;;;;;;8.50;7.70;;;18.60;99.90;;;;;;5127769;28;20931;-77
2021/05/01 10:58:12;;;;;;;8.20;7.50;;;18.70;99.90;;;;;;5031170;28;20494;-75
2021/05/01 11:00:45;;;;;;;8.27;7.47;;;18.70;99.90;;;;;;5031984;28;20477;-74
2021/05/01 11:03:15;;;;;;;10.83;7.70;;;18.60;99.90;;;;;;5074451;28;20471;-74
2021/05/01 11:05:42;;;;;;;9.70;8.83;;;18.50;99.90;;;;;;5131294;27;20485;-74
2021/05/01 11:08:22;;;;;;;8.77;7.87;;;18.50;99.90;;;;;;5133218;27;20536;-74
2021/05/01 11:10:51;;;;;;;9.40;8.50;;;18.70;99.90;;;;;;5133335;27;20467;-74
2021/05/01 11:13:24;;;;;;;9.07;8.33;;;18.80;99.90;;;;;;5133868;27;20445;-75
2021/05/01 11:15:51;;;;;;;8.17;7.50;;;18.40;99.90;;;;;;5135408;27;20480;-74
2021/05/01 11:18:20;;;;;;;11.47;8.50;;;18.10;99.90;;;;;;5107422;27;20445;-74
2021/05/01 11:20:47;;;;;;;10.80;9.20;;;17.80;99.90;;;;;;5033403;28;20502;-74
2021/05/01 11:23:15;;;;;;;9.63;8.60;;;17.50;99.90;;;;;;5031445;27;20824;-75
2021/05/01 11:25:42;;;;;;;9.70;8.50;;;17.30;99.90;;;;;;5097130;27;20455;-75
2021/05/01 11:28:12;;;;;;;8.10;7.30;;;17.20;99.90;;;;;;5043564;27;20852;-75
2021/05/01 11:30:42;;;;;;;10.17;8.90;;;17.20;99.90;;;;;;5036503;27;20479;-75
2021/05/01 11:33:09;;;;;;;7.90;7.17;;;17.30;99.90;;;;;;5037368;27;20448;-75
2021/05/01 11:35:35;;;;;;;7.90;7.10;;;17.40;99.90;;;;;;5095353;27;20441;-75
2021/05/01 11:38:04;;;;;;;8.00;7.30;;;17.50;99.90;;;;;;5102560;27;20445;-76
2021/05/01 11:40:31;;;;;;;8.63;7.80;;;17.60;99.90;;;;;;5040522;27;20803;-76
2021/05/01 11:42:58;;;;;;;7.17;6.50;;;17.80;99.90;;;;;;5039021;27;20438;-75
2021/05/01 11:45:33;;;;;;;8.50;7.87;;;17.80;99.90;;;;;;5036458;27;20850;-75
2021/05/01 11:48:04;;;;;;;8.00;7.40;;;17.80;99.90;;;;;;5038913;27;20807;-75
2021/05/01 11:50:32;;;;;;;7.47;6.80;;;17.70;99.90;;;;;;5056291;27;20491;-76
2021/05/01 11:53:13;;;;;;;7.40;6.70;;;17.50;99.90;;;;;;5098410;27;20450;-76
2021/05/01 11:55:45;;;;;;;7.30;6.70;;;17.30;99.90;;;;;;5098383;27;21022;-74
2021/05/01 11:58:28;;;;;;;7.40;6.80;;;17.00;99.90;;;;;;5049077;27;20515;-74
2021/05/01 12:01:11;;;;;;;7.57;6.83;;;16.80;99.90;;;;;;5100978;27;20442;-75
2021/05/01 12:03:40;;;;;;;7.03;6.40;;;16.50;99.90;;;;;;5096526;27;20444;-75
2021/05/01 12:06:13;;;;;;;6.73;6.23;;;16.40;99.90;;;;;;5049380;27;21011;-75
2021/05/01 12:08:39;;;;;;;7.60;6.90;;;16.40;99.90;;;;;;5038661;27;20441;-75
2021/05/01 12:11:08;;;;;;;7.47;6.80;;;16.50;99.90;;;;;;5093038;27;20477;-74
2021/05/01 12:13:36;;;;;;;7.93;7.27;;;16.60;99.90;;;;;;5093702;27;20448;-74
2021/05/01 12:16:07;;;;;;;6.37;5.77;;;16.90;99.90;;;;;;5052778;27;20497;-74
2021/05/01 12:18:41;;;;;;;7.10;6.50;;;17.20;99.90;;;;;;5037810;27;20452;-74
2021/05/01 12:21:08;;;;;;;7.83;7.23;;;17.60;99.90;;;;;;5091652;27;20984;-74
2021/05/01 12:23:43;;;;;;;7.43;6.73;;;18.00;99.90;;;;;;5093751;27;20782;-75
2021/05/01 12:26:10;;;;;;;7.57;6.87;;;18.20;99.90;;;;;;5048597;27;20468;-75
2021/05/01 12:28:37;;;;;;;7.80;7.10;;;18.40;99.90;;;;;;5077683;27;20544;-72
2021/05/01 12:31:06;;;;;;;7.47;6.87;;;18.60;99.90;;;;;;5042041;27;20448;-72
2021/05/01 12:33:50;;;;;;;10.43;9.40;;;18.70;99.90;;;;;;5041954;27;20858;-72
2021/05/01 12:36:19;;;;;;;8.17;7.47;;;18.80;99.90;;;;;;5047541;27;20524;-75
2021/05/01 12:38:50;;;;;;;6.90;6.40;;;18.80;99.10;;;;;;5044248;27;20453;-75
2021/05/01 12:41:18;;;;;;;7.03;6.33;;;18.70;99.20;;;;;;5042091;27;21023;-75
2021/05/01 12:43:45;;;;;;;6.60;6.00;;;18.50;99.50;;;;;;5042166;27;20496;-75